sensor_id;sensor_type;location;lat;lon;timestamp;P1;durP1;ratioP1;P2;durP2;ratioP2
54452;SDS011;40363;52.270;10.546;2023-07-13T00:01:30;2.80;;;1.63;;
54452;SDS011;40363;52.270;10.546;2023-07-13T00:03:59;4.28;;;1.90;;
54452;SDS011;40363;52.270;10.546;2023-07-13T00:06:25;2.55;;;1.58;;
54452;SDS011;40363;52.270;10.546;2023-07-13T00:08:57;3.92;;;1.83;;
54452;SDS011;40363;52.270;10.546;2023-07-13T00:11:24;1.98;;;1.73;;
54452;SDS011;40363;52.270;10.546;2023-07-13T00:13:51;5.25;;;2.35;;
54452;SDS011;40363;52.270;10.546;2023-07-13T00:16:18;4.60;;;2.10;;
54452;SDS011;40363;52.270;10.546;2023-07-13T00:18:45;4.50;;;2.00;;
54452;SDS011;40363;52.270;10.546;2023-07-13T00:21:13;4.32;;;1.95;;
54452;SDS011;40363;52.270;10.546;2023-07-13T00:23:41;2.72;;;2.00;;
54452;SDS011;40363;52.270;10.546;2023-07-13T00:26:10;5.57;;;2.35;;
54452;SDS011;40363;52.270;10.546;2023-07-13T00:28:38;4.07;;;2.53;;
54452;SDS011;40363;52.270;10.546;2023-07-13T00:31:06;4.78;;;2.30;;
54452;SDS011;40363;52.270;10.546;2023-07-13T00:33:33;4.47;;;2.20;;
54452;SDS011;40363;52.270;10.546;2023-07-13T00:36:00;4.20;;;2.28;;
54452;SDS011;40363;52.270;10.546;2023-07-13T00:38:29;5.15;;;2.42;;
54452;SDS011;40363;52.270;10.546;2023-07-13T00:40:55;5.13;;;2.40;;
54452;SDS011;40363;52.270;10.546;2023-07-13T00:43:23;4.00;;;1.58;;
54452;SDS011;40363;52.270;10.546;2023-07-13T00:48:46;4.78;;;2.15;;
54452;SDS011;40363;52.270;10.546;2023-07-13T00:51:15;2.38;;;1.80;;
54452;SDS011;40363;52.270;10.546;2023-07-13T00:53:46;3.65;;;2.10;;
54452;SDS011;40363;52.270;10.546;2023-07-13T00:56:13;6.30;;;2.08;;
54452;SDS011;40363;52.270;10.546;2023-07-13T00:58:39;3.95;;;2.20;;
54452;SDS011;40363;52.270;10.546;2023-07-13T01:01:06;2.17;;;1.98;;
54452;SDS011;40363;52.270;10.546;2023-07-13T01:03:33;4.63;;;2.40;;
54452;SDS011;40363;52.270;10.546;2023-07-13T01:06:01;4.45;;;1.92;;
54452;SDS011;40363;52.270;10.546;2023-07-13T01:08:28;3.05;;;2.28;;
54452;SDS011;40363;52.270;10.546;2023-07-13T01:10:56;6.47;;;2.30;;
54452;SDS011;40363;52.270;10.546;2023-07-13T01:13:24;6.72;;;2.50;;
54452;SDS011;40363;52.270;10.546;2023-07-13T01:15:51;4.30;;;2.05;;
54452;SDS011;40363;52.270;10.546;2023-07-13T01:18:21;5.40;;;2.40;;
54452;SDS011;40363;52.270;10.546;2023-07-13T01:20:52;3.55;;;2.22;;
54452;SDS011;40363;52.270;10.546;2023-07-13T01:23:20;3.17;;;2.80;;
54452;SDS011;40363;52.270;10.546;2023-07-13T01:25:47;4.82;;;2.03;;
54452;SDS011;40363;52.270;10.546;2023-07-13T01:28:14;4.35;;;2.00;;
54452;SDS011;40363;52.270;10.546;2023-07-13T01:30:41;6.65;;;2.30;;
54452;SDS011;40363;52.270;10.546;2023-07-13T01:33:10;3.58;;;2.13;;
54452;SDS011;40363;52.270;10.546;2023-07-13T01:35:38;3.75;;;1.88;;
54452;SDS011;40363;52.270;10.546;2023-07-13T01:38:06;4.47;;;2.42;;
54452;SDS011;40363;52.270;10.546;2023-07-13T01:40:33;3.97;;;2.78;;
54452;SDS011;40363;52.270;10.546;2023-07-13T01:43:01;2.40;;;1.80;;
54452;SDS011;40363;52.270;10.546;2023-07-13T01:45:28;4.90;;;2.05;;
54452;SDS011;40363;52.270;10.546;2023-07-13T01:47:54;4.55;;;2.25;;
54452;SDS011;40363;52.270;10.546;2023-07-13T01:50:23;6.85;;;2.35;;
54452;SDS011;40363;52.270;10.546;2023-07-13T01:52:49;4.97;;;2.22;;
54452;SDS011;40363;52.270;10.546;2023-07-13T01:55:17;5.47;;;2.10;;
54452;SDS011;40363;52.270;10.546;2023-07-13T01:57:44;3.03;;;2.20;;
54452;SDS011;40363;52.270;10.546;2023-07-13T02:00:12;5.70;;;3.30;;
54452;SDS011;40363;52.270;10.546;2023-07-13T02:02:39;3.67;;;2.53;;
54452;SDS011;40363;52.270;10.546;2023-07-13T02:05:07;3.78;;;2.25;;
54452;SDS011;40363;52.270;10.546;2023-07-13T02:07:34;3.00;;;2.28;;
54452;SDS011;40363;52.270;10.546;2023-07-13T02:10:00;4.80;;;2.25;;
54452;SDS011;40363;52.270;10.546;2023-07-13T02:12:28;5.55;;;2.60;;
54452;SDS011;40363;52.270;10.546;2023-07-13T02:14:55;4.10;;;2.30;;
54452;SDS011;40363;52.270;10.546;2023-07-13T02:17:21;6.00;;;2.70;;
54452;SDS011;40363;52.270;10.546;2023-07-13T02:19:48;2.97;;;2.15;;
54452;SDS011;40363;52.270;10.546;2023-07-13T02:22:15;4.43;;;2.28;;
54452;SDS011;40363;52.270;10.546;2023-07-13T02:24:41;4.53;;;2.45;;
54452;SDS011;40363;52.270;10.546;2023-07-13T02:27:08;6.18;;;2.47;;
54452;SDS011;40363;52.270;10.546;2023-07-13T02:29:36;3.22;;;2.28;;
54452;SDS011;40363;52.270;10.546;2023-07-13T02:32:03;2.90;;;2.15;;
54452;SDS011;40363;52.270;10.546;2023-07-13T02:34:30;4.47;;;2.35;;
54452;SDS011;40363;52.270;10.546;2023-07-13T02:36:57;2.97;;;2.38;;
54452;SDS011;40363;52.270;10.546;2023-07-13T02:39:23;3.83;;;2.50;;
54452;SDS011;40363;52.270;10.546;2023-07-13T02:41:50;4.05;;;2.72;;
54452;SDS011;40363;52.270;10.546;2023-07-13T02:44:17;5.75;;;3.42;;
54452;SDS011;40363;52.270;10.546;2023-07-13T02:46:45;3.63;;;2.42;;
54452;SDS011;40363;52.270;10.546;2023-07-13T02:49:11;2.78;;;2.10;;
54452;SDS011;40363;52.270;10.546;2023-07-13T02:51:38;5.78;;;2.17;;
54452;SDS011;40363;52.270;10.546;2023-07-13T02:54:04;3.42;;;2.08;;
54452;SDS011;40363;52.270;10.546;2023-07-13T02:56:33;4.35;;;2.13;;
54452;SDS011;40363;52.270;10.546;2023-07-13T02:59:00;7.60;;;2.72;;
54452;SDS011;40363;52.270;10.546;2023-07-13T03:01:27;4.15;;;2.88;;
54452;SDS011;40363;52.270;10.546;2023-07-13T03:03:55;4.55;;;2.55;;
54452;SDS011;40363;52.270;10.546;2023-07-13T03:06:22;5.28;;;2.47;;
54452;SDS011;40363;52.270;10.546;2023-07-13T03:08:49;3.92;;;2.40;;
54452;SDS011;40363;52.270;10.546;2023-07-13T03:11:17;3.58;;;2.50;;
54452;SDS011;40363;52.270;10.546;2023-07-13T03:13:45;5.15;;;2.70;;
54452;SDS011;40363;52.270;10.546;2023-07-13T03:16:12;3.63;;;2.20;;
54452;SDS011;40363;52.270;10.546;2023-07-13T03:18:40;2.88;;;2.00;;
54452;SDS011;40363;52.270;10.546;2023-07-13T03:21:09;4.22;;;2.17;;
54452;SDS011;40363;52.270;10.546;2023-07-13T03:23:36;5.70;;;2.80;;
54452;SDS011;40363;52.270;10.546;2023-07-13T03:26:03;4.80;;;2.53;;
54452;SDS011;40363;52.270;10.546;2023-07-13T03:28:31;3.50;;;2.00;;
54452;SDS011;40363;52.270;10.546;2023-07-13T03:30:59;5.00;;;2.15;;
54452;SDS011;40363;52.270;10.546;2023-07-13T03:33:26;4.03;;;2.42;;
54452;SDS011;40363;52.270;10.546;2023-07-13T03:35:53;4.65;;;2.38;;
54452;SDS011;40363;52.270;10.546;2023-07-13T03:38:21;6.85;;;1.98;;
54452;SDS011;40363;52.270;10.546;2023-07-13T03:40:47;3.85;;;2.22;;
54452;SDS011;40363;52.270;10.546;2023-07-13T03:43:15;3.92;;;2.15;;
54452;SDS011;40363;52.270;10.546;2023-07-13T03:45:41;6.00;;;2.22;;
54452;SDS011;40363;52.270;10.546;2023-07-13T03:48:08;4.03;;;2.17;;
54452;SDS011;40363;52.270;10.546;2023-07-13T03:50:35;4.40;;;2.22;;
54452;SDS011;40363;52.270;10.546;2023-07-13T03:53:02;3.67;;;2.15;;
54452;SDS011;40363;52.270;10.546;2023-07-13T03:55:30;7.50;;;2.40;;
54452;SDS011;40363;52.270;10.546;2023-07-13T03:57:58;4.05;;;1.90;;
54452;SDS011;40363;52.270;10.546;2023-07-13T04:00:26;3.00;;;1.98;;
54452;SDS011;40363;52.270;10.546;2023-07-13T04:02:53;5.65;;;2.45;;
54452;SDS011;40363;52.270;10.546;2023-07-13T04:05:19;3.50;;;2.50;;
54452;SDS011;40363;52.270;10.546;2023-07-13T04:07:46;4.97;;;3.67;;
54452;SDS011;40363;52.270;10.546;2023-07-13T04:10:12;4.57;;;2.65;;
54452;SDS011;40363;52.270;10.546;2023-07-13T04:12:40;6.60;;;2.42;;
54452;SDS011;40363;52.270;10.546;2023-07-13T04:15:07;4.93;;;2.30;;
54452;SDS011;40363;52.270;10.546;2023-07-13T04:17:34;3.28;;;2.13;;
54452;SDS011;40363;52.270;10.546;2023-07-13T04:20:01;4.22;;;2.00;;
54452;SDS011;40363;52.270;10.546;2023-07-13T04:22:29;3.35;;;2.22;;
54452;SDS011;40363;52.270;10.546;2023-07-13T04:24:55;7.60;;;2.92;;
54452;SDS011;40363;52.270;10.546;2023-07-13T04:27:22;6.75;;;3.03;;
54452;SDS011;40363;52.270;10.546;2023-07-13T04:29:50;5.82;;;2.47;;
54452;SDS011;40363;52.270;10.546;2023-07-13T04:32:17;5.43;;;2.53;;
54452;SDS011;40363;52.270;10.546;2023-07-13T04:34:43;5.65;;;2.60;;
54452;SDS011;40363;52.270;10.546;2023-07-13T04:37:10;3.55;;;2.90;;
54452;SDS011;40363;52.270;10.546;2023-07-13T04:39:36;5.20;;;2.25;;
54452;SDS011;40363;52.270;10.546;2023-07-13T04:42:03;8.48;;;2.63;;
54452;SDS011;40363;52.270;10.546;2023-07-13T04:44:30;4.65;;;2.53;;
54452;SDS011;40363;52.270;10.546;2023-07-13T04:46:58;5.93;;;2.50;;
54452;SDS011;40363;52.270;10.546;2023-07-13T04:49:25;2.95;;;1.95;;
54452;SDS011;40363;52.270;10.546;2023-07-13T04:51:51;4.82;;;1.73;;
54452;SDS011;40363;52.270;10.546;2023-07-13T04:54:20;4.72;;;2.50;;
54452;SDS011;40363;52.270;10.546;2023-07-13T04:56:47;4.78;;;2.20;;
54452;SDS011;40363;52.270;10.546;2023-07-13T04:59:14;3.10;;;1.70;;
54452;SDS011;40363;52.270;10.546;2023-07-13T05:01:41;6.40;;;1.98;;
54452;SDS011;40363;52.270;10.546;2023-07-13T05:04:09;3.95;;;2.03;;
54452;SDS011;40363;52.270;10.546;2023-07-13T05:06:35;2.13;;;1.70;;
54452;SDS011;40363;52.270;10.546;2023-07-13T05:09:02;3.22;;;1.83;;
54452;SDS011;40363;52.270;10.546;2023-07-13T05:11:29;4.30;;;1.85;;
54452;SDS011;40363;52.270;10.546;2023-07-13T05:13:55;3.33;;;1.80;;
54452;SDS011;40363;52.270;10.546;2023-07-13T05:16:22;4.80;;;2.10;;
54452;SDS011;40363;52.270;10.546;2023-07-13T05:18:48;4.32;;;2.53;;
54452;SDS011;40363;52.270;10.546;2023-07-13T05:21:17;5.18;;;1.67;;
54452;SDS011;40363;52.270;10.546;2023-07-13T05:23:43;6.18;;;2.45;;
54452;SDS011;40363;52.270;10.546;2023-07-13T05:26:10;3.92;;;1.58;;
54452;SDS011;40363;52.270;10.546;2023-07-13T05:28:37;6.60;;;2.40;;
54452;SDS011;40363;52.270;10.546;2023-07-13T05:31:04;9.50;;;1.95;;
54452;SDS011;40363;52.270;10.546;2023-07-13T05:33:33;2.30;;;1.60;;
54452;SDS011;40363;52.270;10.546;2023-07-13T05:35:59;7.82;;;1.92;;
54452;SDS011;40363;52.270;10.546;2023-07-13T05:38:28;3.60;;;1.83;;
54452;SDS011;40363;52.270;10.546;2023-07-13T05:40:55;4.72;;;1.70;;
54452;SDS011;40363;52.270;10.546;2023-07-13T05:43:22;8.18;;;1.83;;
54452;SDS011;40363;52.270;10.546;2023-07-13T05:45:51;3.75;;;1.80;;
54452;SDS011;40363;52.270;10.546;2023-07-13T05:48:19;3.97;;;1.98;;
54452;SDS011;40363;52.270;10.546;2023-07-13T05:50:45;5.07;;;1.88;;
54452;SDS011;40363;52.270;10.546;2023-07-13T05:53:12;3.28;;;1.98;;
54452;SDS011;40363;52.270;10.546;2023-07-13T05:55:42;4.07;;;1.40;;
54452;SDS011;40363;52.270;10.546;2023-07-13T05:58:10;3.78;;;1.65;;
54452;SDS011;40363;52.270;10.546;2023-07-13T06:00:37;4.07;;;1.58;;
54452;SDS011;40363;52.270;10.546;2023-07-13T06:03:04;3.17;;;1.65;;
54452;SDS011;40363;52.270;10.546;2023-07-13T06:05:31;5.25;;;1.70;;
54452;SDS011;40363;52.270;10.546;2023-07-13T06:07:59;4.82;;;1.65;;
54452;SDS011;40363;52.270;10.546;2023-07-13T06:10:26;5.05;;;2.15;;
54452;SDS011;40363;52.270;10.546;2023-07-13T06:12:53;3.13;;;1.30;;
54452;SDS011;40363;52.270;10.546;2023-07-13T06:15:20;3.83;;;1.30;;
54452;SDS011;40363;52.270;10.546;2023-07-13T06:17:47;7.03;;;2.45;;
54452;SDS011;40363;52.270;10.546;2023-07-13T06:20:13;6.10;;;1.70;;
54452;SDS011;40363;52.270;10.546;2023-07-13T06:22:40;1.50;;;1.25;;
54452;SDS011;40363;52.270;10.546;2023-07-13T06:25:07;5.32;;;1.92;;
54452;SDS011;40363;52.270;10.546;2023-07-13T06:27:34;2.97;;;1.38;;
54452;SDS011;40363;52.270;10.546;2023-07-13T06:30:03;6.00;;;1.73;;
54452;SDS011;40363;52.270;10.546;2023-07-13T06:32:30;3.05;;;1.35;;
54452;SDS011;40363;52.270;10.546;2023-07-13T06:34:56;9.95;;;1.42;;
54452;SDS011;40363;52.270;10.546;2023-07-13T06:37:23;7.40;;;1.52;;
54452;SDS011;40363;52.270;10.546;2023-07-13T06:39:50;5.35;;;1.40;;
54452;SDS011;40363;52.270;10.546;2023-07-13T06:42:16;5.15;;;1.50;;
54452;SDS011;40363;52.270;10.546;2023-07-13T06:44:43;3.50;;;1.73;;
54452;SDS011;40363;52.270;10.546;2023-07-13T06:47:11;4.35;;;1.88;;
54452;SDS011;40363;52.270;10.546;2023-07-13T06:49:38;4.68;;;1.73;;
54452;SDS011;40363;52.270;10.546;2023-07-13T06:52:05;8.50;;;1.73;;
54452;SDS011;40363;52.270;10.546;2023-07-13T06:54:32;4.10;;;1.25;;
54452;SDS011;40363;52.270;10.546;2023-07-13T06:57:00;4.60;;;1.38;;
54452;SDS011;40363;52.270;10.546;2023-07-13T06:59:26;3.28;;;1.73;;
54452;SDS011;40363;52.270;10.546;2023-07-13T07:01:53;7.97;;;1.65;;
54452;SDS011;40363;52.270;10.546;2023-07-13T07:04:21;8.52;;;1.90;;
54452;SDS011;40363;52.270;10.546;2023-07-13T07:06:48;3.65;;;1.75;;
54452;SDS011;40363;52.270;10.546;2023-07-13T07:09:14;5.95;;;2.00;;
54452;SDS011;40363;52.270;10.546;2023-07-13T07:11:41;5.15;;;1.90;;
54452;SDS011;40363;52.270;10.546;2023-07-13T07:14:08;4.03;;;1.38;;
54452;SDS011;40363;52.270;10.546;2023-07-13T07:16:35;5.78;;;1.90;;
54452;SDS011;40363;52.270;10.546;2023-07-13T07:19:01;6.22;;;2.05;;
54452;SDS011;40363;52.270;10.546;2023-07-13T07:21:29;4.43;;;1.80;;
54452;SDS011;40363;52.270;10.546;2023-07-13T07:23:56;5.07;;;2.10;;
54452;SDS011;40363;52.270;10.546;2023-07-13T07:26:24;3.95;;;2.10;;
54452;SDS011;40363;52.270;10.546;2023-07-13T07:28:51;4.35;;;2.13;;
54452;SDS011;40363;52.270;10.546;2023-07-13T07:31:18;6.68;;;2.70;;
54452;SDS011;40363;52.270;10.546;2023-07-13T07:33:44;5.68;;;1.95;;
54452;SDS011;40363;52.270;10.546;2023-07-13T07:36:11;5.45;;;1.45;;
54452;SDS011;40363;52.270;10.546;2023-07-13T07:38:39;6.75;;;1.70;;
54452;SDS011;40363;52.270;10.546;2023-07-13T07:41:06;7.55;;;2.25;;
54452;SDS011;40363;52.270;10.546;2023-07-13T07:43:32;8.95;;;2.00;;
54452;SDS011;40363;52.270;10.546;2023-07-13T07:45:59;3.38;;;2.03;;
54452;SDS011;40363;52.270;10.546;2023-07-13T07:48:26;8.13;;;1.98;;
54452;SDS011;40363;52.270;10.546;2023-07-13T07:50:52;3.03;;;0.98;;
54452;SDS011;40363;52.270;10.546;2023-07-13T07:53:19;5.05;;;1.60;;
54452;SDS011;40363;52.270;10.546;2023-07-13T07:55:47;7.22;;;2.05;;
54452;SDS011;40363;52.270;10.546;2023-07-13T07:58:15;3.35;;;1.17;;
54452;SDS011;40363;52.270;10.546;2023-07-13T08:00:42;6.40;;;1.58;;
54452;SDS011;40363;52.270;10.546;2023-07-13T08:03:09;4.20;;;1.30;;
54452;SDS011;40363;52.270;10.546;2023-07-13T08:05:36;5.10;;;1.17;;
54452;SDS011;40363;52.270;10.546;2023-07-13T08:08:03;3.95;;;1.30;;
54452;SDS011;40363;52.270;10.546;2023-07-13T08:10:30;5.65;;;2.03;;
54452;SDS011;40363;52.270;10.546;2023-07-13T08:12:58;3.55;;;1.35;;
54452;SDS011;40363;52.270;10.546;2023-07-13T08:15:24;5.07;;;1.67;;
54452;SDS011;40363;52.270;10.546;2023-07-13T08:17:51;2.50;;;1.38;;
54452;SDS011;40363;52.270;10.546;2023-07-13T08:20:17;7.70;;;1.40;;
54452;SDS011;40363;52.270;10.546;2023-07-13T08:22:44;3.03;;;1.08;;
54452;SDS011;40363;52.270;10.546;2023-07-13T08:25:11;3.08;;;1.00;;
54452;SDS011;40363;52.270;10.546;2023-07-13T08:27:37;7.53;;;1.33;;
54452;SDS011;40363;52.270;10.546;2023-07-13T08:30:06;6.57;;;1.40;;
54452;SDS011;40363;52.270;10.546;2023-07-13T08:32:33;2.55;;;1.83;;
54452;SDS011;40363;52.270;10.546;2023-07-13T08:35:00;3.50;;;1.10;;
54452;SDS011;40363;52.270;10.546;2023-07-13T08:37:26;6.10;;;1.10;;
54452;SDS011;40363;52.270;10.546;2023-07-13T08:39:53;4.97;;;1.05;;
54452;SDS011;40363;52.270;10.546;2023-07-13T08:42:22;5.13;;;1.08;;
54452;SDS011;40363;52.270;10.546;2023-07-13T08:45:00;3.20;;;1.10;;
54452;SDS011;40363;52.270;10.546;2023-07-13T08:47:35;6.03;;;1.30;;
54452;SDS011;40363;52.270;10.546;2023-07-13T08:50:08;4.43;;;1.02;;
54452;SDS011;40363;52.270;10.546;2023-07-13T08:52:38;3.45;;;1.00;;
54452;SDS011;40363;52.270;10.546;2023-07-13T08:55:09;4.70;;;0.85;;
54452;SDS011;40363;52.270;10.546;2023-07-13T08:57:39;3.75;;;1.30;;
54452;SDS011;40363;52.270;10.546;2023-07-13T09:00:09;4.22;;;0.95;;
54452;SDS011;40363;52.270;10.546;2023-07-13T09:02:41;4.45;;;1.27;;
54452;SDS011;40363;52.270;10.546;2023-07-13T09:05:12;6.18;;;1.27;;
54452;SDS011;40363;52.270;10.546;2023-07-13T09:07:46;2.97;;;1.02;;
54452;SDS011;40363;52.270;10.546;2023-07-13T09:10:23;4.53;;;1.20;;
54452;SDS011;40363;52.270;10.546;2023-07-13T09:12:57;5.85;;;1.15;;
54452;SDS011;40363;52.270;10.546;2023-07-13T09:15:35;5.03;;;1.30;;
54452;SDS011;40363;52.270;10.546;2023-07-13T09:18:08;2.67;;;1.13;;
54452;SDS011;40363;52.270;10.546;2023-07-13T09:20:38;4.18;;;1.48;;
54452;SDS011;40363;52.270;10.546;2023-07-13T09:23:12;3.40;;;1.15;;
54452;SDS011;40363;52.270;10.546;2023-07-13T09:25:43;3.35;;;1.05;;
54452;SDS011;40363;52.270;10.546;2023-07-13T09:28:14;5.85;;;1.20;;
54452;SDS011;40363;52.270;10.546;2023-07-13T09:30:45;3.30;;;1.10;;
54452;SDS011;40363;52.270;10.546;2023-07-13T09:33:19;5.20;;;1.00;;
54452;SDS011;40363;52.270;10.546;2023-07-13T09:35:46;4.13;;;1.15;;
54452;SDS011;40363;52.270;10.546;2023-07-13T09:38:13;6.22;;;1.20;;
54452;SDS011;40363;52.270;10.546;2023-07-13T09:40:48;3.83;;;1.30;;
54452;SDS011;40363;52.270;10.546;2023-07-13T09:43:24;4.82;;;1.20;;
54452;SDS011;40363;52.270;10.546;2023-07-13T09:45:51;1.42;;;0.95;;
54452;SDS011;40363;52.270;10.546;2023-07-13T09:48:19;5.32;;;1.20;;
54452;SDS011;40363;52.270;10.546;2023-07-13T09:50:46;8.05;;;1.42;;
54452;SDS011;40363;52.270;10.546;2023-07-13T09:53:13;7.05;;;1.30;;
54452;SDS011;40363;52.270;10.546;2023-07-13T09:55:42;2.55;;;1.10;;
54452;SDS011;40363;52.270;10.546;2023-07-13T09:58:11;3.53;;;1.42;;
54452;SDS011;40363;52.270;10.546;2023-07-13T10:00:39;4.90;;;1.20;;
54452;SDS011;40363;52.270;10.546;2023-07-13T10:03:14;3.92;;;1.20;;
54452;SDS011;40363;52.270;10.546;2023-07-13T10:05:47;5.97;;;1.30;;
54452;SDS011;40363;52.270;10.546;2023-07-13T10:08:21;6.68;;;1.63;;
54452;SDS011;40363;52.270;10.546;2023-07-13T10:10:52;3.80;;;1.13;;
54452;SDS011;40363;52.270;10.546;2023-07-13T10:13:28;3.67;;;1.02;;
54452;SDS011;40363;52.270;10.546;2023-07-13T10:15:57;6.90;;;1.48;;
54452;SDS011;40363;52.270;10.546;2023-07-13T10:18:25;4.05;;;1.20;;
54452;SDS011;40363;52.270;10.546;2023-07-13T10:20:57;3.55;;;1.20;;
54452;SDS011;40363;52.270;10.546;2023-07-13T10:23:35;5.25;;;1.27;;
54452;SDS011;40363;52.270;10.546;2023-07-13T10:26:02;7.07;;;1.30;;
54452;SDS011;40363;52.270;10.546;2023-07-13T10:28:31;3.78;;;1.15;;
54452;SDS011;40363;52.270;10.546;2023-07-13T10:31:02;3.83;;;1.20;;
54452;SDS011;40363;52.270;10.546;2023-07-13T10:36:07;3.53;;;1.45;;
54452;SDS011;40363;52.270;10.546;2023-07-13T10:38:41;2.67;;;1.05;;
54452;SDS011;40363;52.270;10.546;2023-07-13T10:41:10;2.70;;;0.98;;
54452;SDS011;40363;52.270;10.546;2023-07-13T10:43:41;2.67;;;1.30;;
54452;SDS011;40363;52.270;10.546;2023-07-13T10:46:11;4.18;;;1.30;;
54452;SDS011;40363;52.270;10.546;2023-07-13T10:48:42;4.85;;;1.40;;
54452;SDS011;40363;52.270;10.546;2023-07-13T10:51:13;4.65;;;1.08;;
54452;SDS011;40363;52.270;10.546;2023-07-13T10:53:41;3.67;;;1.42;;
54452;SDS011;40363;52.270;10.546;2023-07-13T10:56:19;4.28;;;2.00;;
54452;SDS011;40363;52.270;10.546;2023-07-13T10:59:01;3.40;;;1.10;;
54452;SDS011;40363;52.270;10.546;2023-07-13T11:01:39;3.50;;;1.48;;
54452;SDS011;40363;52.270;10.546;2023-07-13T11:04:08;5.20;;;1.48;;
54452;SDS011;40363;52.270;10.546;2023-07-13T11:06:41;4.28;;;1.50;;
54452;SDS011;40363;52.270;10.546;2023-07-13T11:09:28;3.28;;;1.67;;
54452;SDS011;40363;52.270;10.546;2023-07-13T11:11:58;5.50;;;1.65;;
54452;SDS011;40363;52.270;10.546;2023-07-13T11:14:27;4.57;;;1.70;;
54452;SDS011;40363;52.270;10.546;2023-07-13T11:16:56;4.07;;;1.67;;
54452;SDS011;40363;52.270;10.546;2023-07-13T11:19:38;3.95;;;1.35;;
54452;SDS011;40363;52.270;10.546;2023-07-13T11:22:15;4.38;;;1.35;;
54452;SDS011;40363;52.270;10.546;2023-07-13T11:24:56;4.53;;;1.42;;
54452;SDS011;40363;52.270;10.546;2023-07-13T11:27:37;3.85;;;1.20;;
54452;SDS011;40363;52.270;10.546;2023-07-13T11:30:21;3.30;;;1.48;;
54452;SDS011;40363;52.270;10.546;2023-07-13T11:32:51;2.15;;;1.23;;
54452;SDS011;40363;52.270;10.546;2023-07-13T11:35:30;4.30;;;1.40;;
54452;SDS011;40363;52.270;10.546;2023-07-13T11:38:01;3.28;;;1.60;;
54452;SDS011;40363;52.270;10.546;2023-07-13T11:40:28;1.70;;;1.13;;
54452;SDS011;40363;52.270;10.546;2023-07-13T11:42:59;4.53;;;1.88;;
54452;SDS011;40363;52.270;10.546;2023-07-13T11:45:26;4.03;;;1.40;;
54452;SDS011;40363;52.270;10.546;2023-07-13T11:47:53;2.05;;;1.20;;
54452;SDS011;40363;52.270;10.546;2023-07-13T11:50:23;2.55;;;1.40;;
54452;SDS011;40363;52.270;10.546;2023-07-13T11:52:50;1.55;;;1.02;;
54452;SDS011;40363;52.270;10.546;2023-07-13T11:55:22;3.85;;;1.27;;
54452;SDS011;40363;52.270;10.546;2023-07-13T11:57:50;1.80;;;1.27;;
54452;SDS011;40363;52.270;10.546;2023-07-13T12:00:23;2.10;;;1.10;;
54452;SDS011;40363;52.270;10.546;2023-07-13T12:02:54;2.95;;;1.00;;
54452;SDS011;40363;52.270;10.546;2023-07-13T12:05:24;3.33;;;1.27;;
54452;SDS011;40363;52.270;10.546;2023-07-13T12:07:51;3.30;;;1.27;;
54452;SDS011;40363;52.270;10.546;2023-07-13T12:10:20;1.20;;;0.80;;
54452;SDS011;40363;52.270;10.546;2023-07-13T12:12:51;3.30;;;0.98;;
54452;SDS011;40363;52.270;10.546;2023-07-13T12:15:20;3.65;;;1.20;;
54452;SDS011;40363;52.270;10.546;2023-07-13T12:17:48;4.32;;;1.13;;
54452;SDS011;40363;52.270;10.546;2023-07-13T12:20:17;4.97;;;1.20;;
54452;SDS011;40363;52.270;10.546;2023-07-13T12:22:48;7.32;;;1.10;;
54452;SDS011;40363;52.270;10.546;2023-07-13T12:25:16;4.47;;;1.55;;
54452;SDS011;40363;52.270;10.546;2023-07-13T12:27:47;6.03;;;1.45;;
54452;SDS011;40363;52.270;10.546;2023-07-13T12:30:22;3.38;;;1.35;;
54452;SDS011;40363;52.270;10.546;2023-07-13T12:32:55;3.65;;;1.20;;
54452;SDS011;40363;52.270;10.546;2023-07-13T12:35:23;2.10;;;1.02;;
54452;SDS011;40363;52.270;10.546;2023-07-13T12:37:50;2.92;;;1.27;;
54452;SDS011;40363;52.270;10.546;2023-07-13T12:40:18;3.28;;;1.23;;
54452;SDS011;40363;52.270;10.546;2023-07-13T12:42:48;1.67;;;1.15;;
54452;SDS011;40363;52.270;10.546;2023-07-13T12:45:18;3.60;;;1.17;;
54452;SDS011;40363;52.270;10.546;2023-07-13T12:47:48;1.80;;;1.38;;
54452;SDS011;40363;52.270;10.546;2023-07-13T12:50:19;3.63;;;1.33;;
54452;SDS011;40363;52.270;10.546;2023-07-13T12:52:50;2.30;;;1.15;;
54452;SDS011;40363;52.270;10.546;2023-07-13T12:55:19;5.60;;;1.40;;
54452;SDS011;40363;52.270;10.546;2023-07-13T12:57:49;1.73;;;1.20;;
54452;SDS011;40363;52.270;10.546;2023-07-13T13:00:24;2.13;;;1.23;;
54452;SDS011;40363;52.270;10.546;2023-07-13T13:02:53;4.05;;;1.30;;
54452;SDS011;40363;52.270;10.546;2023-07-13T13:05:22;3.15;;;1.40;;
54452;SDS011;40363;52.270;10.546;2023-07-13T13:07:52;3.33;;;1.20;;
54452;SDS011;40363;52.270;10.546;2023-07-13T13:10:18;3.85;;;1.40;;
54452;SDS011;40363;52.270;10.546;2023-07-13T13:12:46;6.03;;;1.90;;
54452;SDS011;40363;52.270;10.546;2023-07-13T13:15:14;3.42;;;1.27;;
54452;SDS011;40363;52.270;10.546;2023-07-13T13:17:41;4.05;;;1.63;;
54452;SDS011;40363;52.270;10.546;2023-07-13T13:20:13;4.05;;;1.73;;
54452;SDS011;40363;52.270;10.546;2023-07-13T13:22:42;4.28;;;1.63;;
54452;SDS011;40363;52.270;10.546;2023-07-13T13:25:09;3.05;;;1.25;;
54452;SDS011;40363;52.270;10.546;2023-07-13T13:27:36;3.78;;;1.42;;
54452;SDS011;40363;52.270;10.546;2023-07-13T13:30:03;4.80;;;1.40;;
54452;SDS011;40363;52.270;10.546;2023-07-13T13:32:37;3.75;;;1.30;;
54452;SDS011;40363;52.270;10.546;2023-07-13T13:35:03;2.08;;;1.33;;
54452;SDS011;40363;52.270;10.546;2023-07-13T13:37:31;4.00;;;1.45;;
54452;SDS011;40363;52.270;10.546;2023-07-13T13:39:58;4.15;;;1.42;;
54452;SDS011;40363;52.270;10.546;2023-07-13T13:42:25;5.63;;;1.40;;
54452;SDS011;40363;52.270;10.546;2023-07-13T13:44:53;4.28;;;1.85;;
54452;SDS011;40363;52.270;10.546;2023-07-13T13:47:26;3.88;;;1.58;;
54452;SDS011;40363;52.270;10.546;2023-07-13T13:52:25;2.08;;;1.55;;
54452;SDS011;40363;52.270;10.546;2023-07-13T13:54:52;3.95;;;1.85;;
54452;SDS011;40363;52.270;10.546;2023-07-13T13:57:21;4.85;;;1.40;;
54452;SDS011;40363;52.270;10.546;2023-07-13T13:59:48;1.90;;;1.42;;
54452;SDS011;40363;52.270;10.546;2023-07-13T14:02:20;3.80;;;1.30;;
54452;SDS011;40363;52.270;10.546;2023-07-13T14:04:50;2.78;;;1.45;;
54452;SDS011;40363;52.270;10.546;2023-07-13T14:07:21;3.35;;;1.27;;
54452;SDS011;40363;52.270;10.546;2023-07-13T14:09:48;1.95;;;1.35;;
54452;SDS011;40363;52.270;10.546;2023-07-13T14:12:15;3.47;;;1.58;;
54452;SDS011;40363;52.270;10.546;2023-07-13T14:14:41;3.55;;;1.48;;
54452;SDS011;40363;52.270;10.546;2023-07-13T14:17:11;5.07;;;1.42;;
54452;SDS011;40363;52.270;10.546;2023-07-13T14:19:46;2.88;;;1.63;;
54452;SDS011;40363;52.270;10.546;2023-07-13T14:22:15;3.63;;;1.60;;
54452;SDS011;40363;52.270;10.546;2023-07-13T14:24:43;8.20;;;1.65;;
54452;SDS011;40363;52.270;10.546;2023-07-13T14:27:10;7.53;;;1.75;;
54452;SDS011;40363;52.270;10.546;2023-07-13T14:29:38;4.03;;;1.77;;
54452;SDS011;40363;52.270;10.546;2023-07-13T14:32:07;3.15;;;1.60;;
54452;SDS011;40363;52.270;10.546;2023-07-13T14:34:36;3.30;;;1.60;;
54452;SDS011;40363;52.270;10.546;2023-07-13T14:37:03;5.50;;;1.70;;
54452;SDS011;40363;52.270;10.546;2023-07-13T14:39:30;4.28;;;2.10;;
54452;SDS011;40363;52.270;10.546;2023-07-13T14:41:58;2.97;;;2.08;;
54452;SDS011;40363;52.270;10.546;2023-07-13T14:44:26;3.92;;;1.75;;
54452;SDS011;40363;52.270;10.546;2023-07-13T14:46:55;4.00;;;1.60;;
54452;SDS011;40363;52.270;10.546;2023-07-13T14:49:24;3.70;;;1.40;;